createdAt,value
2022-08-16T00:01:24.437Z,19.90
2022-08-16T00:03:53.785Z,19.90
2022-08-16T00:06:22.367Z,19.90
2022-08-16T00:08:52.413Z,19.90
2022-08-16T00:11:21.560Z,19.90
2022-08-16T00:13:54.000Z,19.80
2022-08-16T00:17:01.220Z,19.80
2022-08-16T00:19:18.922Z,19.80
2022-08-16T00:21:46.636Z,19.80
2022-08-16T00:24:31.381Z,19.70
2022-08-16T00:27:02.827Z,19.60
2022-08-16T00:29:30.469Z,19.60
2022-08-16T00:32:05.386Z,19.70
2022-08-16T00:34:52.318Z,19.60
2022-08-16T00:37:25.175Z,19.60
2022-08-16T00:40:34.467Z,19.50
2022-08-16T00:43:26.468Z,19.40
2022-08-16T00:46:35.365Z,19.40
2022-08-16T00:49:17.483Z,19.40
2022-08-16T00:51:55.054Z,19.40
2022-08-16T00:54:27.068Z,19.40
2022-08-16T00:57:00.158Z,19.40
2022-08-16T00:59:32.769Z,19.40
2022-08-16T01:02:30.680Z,19.40
2022-08-16T01:05:09.619Z,19.40
2022-08-16T01:07:51.750Z,19.40
2022-08-16T01:10:31.508Z,19.40
2022-08-16T01:13:15.264Z,19.50
2022-08-16T01:15:53.659Z,19.50
2022-08-16T01:18:39.068Z,19.40
2022-08-16T01:21:22.626Z,19.40
2022-08-16T01:24:01.544Z,19.40
2022-08-16T01:26:34.280Z,19.40
2022-08-16T01:29:09.888Z,19.40
2022-08-16T01:31:42.551Z,19.40
2022-08-16T01:34:22.770Z,19.50
2022-08-16T01:37:19.365Z,19.40
2022-08-16T01:39:48.950Z,19.40
2022-08-16T01:42:16.660Z,19.40
2022-08-16T01:44:47.597Z,19.30
2022-08-16T01:47:19.806Z,19.30
2022-08-16T01:50:43.274Z,19.30
2022-08-16T01:52:36.166Z,19.30
2022-08-16T01:55:07.124Z,19.40
2022-08-16T01:57:35.565Z,19.40
2022-08-16T02:00:19.595Z,19.40
2022-08-16T02:02:52.072Z,19.40
2022-08-16T02:05:20.156Z,19.40
2022-08-16T02:07:52.212Z,19.40
2022-08-16T02:10:21.105Z,19.40
2022-08-16T02:12:51.311Z,19.40
2022-08-16T02:15:25.412Z,19.50
2022-08-16T02:17:54.448Z,19.50
2022-08-16T02:20:26.064Z,19.50
2022-08-16T02:22:55.514Z,19.50
2022-08-16T02:25:24.135Z,19.40
2022-08-16T02:27:51.803Z,19.50
2022-08-16T02:30:35.946Z,19.50
2022-08-16T02:33:06.204Z,19.50
2022-08-16T02:35:34.693Z,19.50
2022-08-16T02:38:21.845Z,19.40
2022-08-16T02:40:49.503Z,19.40
2022-08-16T02:43:17.096Z,19.30
2022-08-16T02:45:44.660Z,19.30
2022-08-16T02:48:30.302Z,19.30
2022-08-16T02:51:10.393Z,19.30
2022-08-16T02:53:43.822Z,19.30
2022-08-16T02:56:14.623Z,19.30
2022-08-16T02:58:43.992Z,19.30
2022-08-16T03:01:24.585Z,19.30
2022-08-16T03:04:39.374Z,19.40
2022-08-16T03:06:56.611Z,19.40
2022-08-16T03:09:28.548Z,19.40
2022-08-16T03:11:57.488Z,19.40
2022-08-16T03:14:25.724Z,19.40
2022-08-16T03:16:59.964Z,19.40
2022-08-16T03:19:46.979Z,19.40
2022-08-16T03:22:19.185Z,19.40
2022-08-16T03:24:57.960Z,19.40
2022-08-16T03:27:30.577Z,19.40
2022-08-16T03:30:16.361Z,19.40
2022-08-16T03:32:51.138Z,19.40
2022-08-16T03:35:22.121Z,19.40
2022-08-16T03:38:03.189Z,19.30
2022-08-16T03:40:34.640Z,19.40
2022-08-16T03:43:20.599Z,19.40
2022-08-16T03:45:52.879Z,19.40
2022-08-16T03:48:36.349Z,19.40
2022-08-16T03:51:09.857Z,19.40
2022-08-16T03:53:40.834Z,19.40
2022-08-16T03:56:18.695Z,19.40
2022-08-16T03:58:50.708Z,19.40
2022-08-16T04:01:19.786Z,19.40
2022-08-16T04:03:47.236Z,19.40
2022-08-16T04:06:17.607Z,19.40
2022-08-16T04:08:45.352Z,19.50
2022-08-16T04:11:16.356Z,19.50
2022-08-16T04:14:01.619Z,19.50
2022-08-16T04:16:33.725Z,19.40
2022-08-16T04:19:04.380Z,19.40
2022-08-16T04:21:34.459Z,19.40
2022-08-16T04:24:03.351Z,19.40
2022-08-16T04:26:32.517Z,19.40
2022-08-16T04:29:14.970Z,19.40
2022-08-16T04:31:56.316Z,19.40
2022-08-16T04:34:28.036Z,19.30
2022-08-16T04:36:57.749Z,19.40
2022-08-16T04:39:37.084Z,19.40
2022-08-16T04:42:15.707Z,19.40
2022-08-16T04:44:54.169Z,19.40
2022-08-16T04:47:31.477Z,19.40
2022-08-16T04:49:59.584Z,19.50
2022-08-16T04:52:34.581Z,19.50
2022-08-16T04:55:31.936Z,19.50
2022-08-16T04:58:44.538Z,19.50
2022-08-16T05:00:54.949Z,19.50
2022-08-16T05:03:22.432Z,19.50
2022-08-16T05:05:58.922Z,19.50
2022-08-16T05:08:30.767Z,19.60
2022-08-16T05:11:01.367Z,19.60
2022-08-16T05:13:40.538Z,19.60
2022-08-16T05:16:19.872Z,19.60
2022-08-16T05:18:50.666Z,19.60
2022-08-16T05:21:20.848Z,19.50
2022-08-16T05:23:51.813Z,19.60
2022-08-16T05:26:28.056Z,19.60
2022-08-16T05:28:57.287Z,19.60
2022-08-16T05:31:29.590Z,19.70
2022-08-16T05:34:03.731Z,19.60
2022-08-16T05:36:36.842Z,19.60
2022-08-16T05:39:09.432Z,19.60
2022-08-16T05:41:45.464Z,19.60
2022-08-16T05:44:22.426Z,19.60
2022-08-16T05:46:57.691Z,19.60
2022-08-16T05:49:39.319Z,19.60
2022-08-16T05:52:13.815Z,19.60
2022-08-16T05:54:47.550Z,19.60
2022-08-16T05:57:17.281Z,19.70
2022-08-16T05:59:47.386Z,19.60
2022-08-16T06:02:19.694Z,19.60
2022-08-16T06:04:47.546Z,19.60
2022-08-16T06:07:24.935Z,19.60
2022-08-16T06:09:59.692Z,19.70
2022-08-16T06:12:30.115Z,19.70
2022-08-16T06:15:01.761Z,19.70
2022-08-16T06:17:42.833Z,19.70
2022-08-16T06:20:24.088Z,19.80
2022-08-16T06:22:58.609Z,19.80
2022-08-16T06:25:36.008Z,19.90
2022-08-16T06:28:09.652Z,19.90
2022-08-16T06:30:43.912Z,20.00
2022-08-16T06:33:19.825Z,20.00
2022-08-16T06:35:55.223Z,20.00
2022-08-16T06:38:33.739Z,20.00
2022-08-16T06:41:06.855Z,20.10
2022-08-16T06:43:41.771Z,20.00
2022-08-16T06:46:31.361Z,20.00
2022-08-16T06:49:00.690Z,20.00
2022-08-16T06:51:46.385Z,20.00
2022-08-16T06:54:16.598Z,20.00
2022-08-16T06:56:44.137Z,20.00
2022-08-16T06:59:13.160Z,20.00
2022-08-16T07:01:45.072Z,20.10
2022-08-16T07:04:31.526Z,20.10
2022-08-16T07:06:59.808Z,20.30
2022-08-16T07:09:29.766Z,20.20
2022-08-16T07:12:03.512Z,20.30
2022-08-16T07:14:33.670Z,20.30
2022-08-16T07:17:03.343Z,20.30
2022-08-16T07:20:30.085Z,20.20
2022-08-16T07:22:37.459Z,20.20
2022-08-16T07:25:12.279Z,20.30
2022-08-16T07:27:41.058Z,20.30
2022-08-16T07:30:45.898Z,20.40
2022-08-16T07:33:00.425Z,20.40
2022-08-16T07:35:28.479Z,20.40
2022-08-16T07:37:56.216Z,20.40
2022-08-16T07:40:49.560Z,20.40
2022-08-16T07:43:12.748Z,20.40
2022-08-16T07:45:42.987Z,20.40
2022-08-16T07:48:11.863Z,20.40
2022-08-16T07:50:57.263Z,20.40
2022-08-16T07:53:30.110Z,20.50
2022-08-16T07:56:00.427Z,20.60
2022-08-16T07:58:34.753Z,20.80
2022-08-16T08:01:10.847Z,20.90
2022-08-16T08:03:47.728Z,21.00
2022-08-16T08:06:18.616Z,21.00
2022-08-16T08:08:50.405Z,21.00
2022-08-16T08:11:23.666Z,21.10
2022-08-16T08:13:53.462Z,21.20
2022-08-16T08:16:21.853Z,21.30
2022-08-16T08:19:02.562Z,21.30
2022-08-16T08:21:58.285Z,21.40
2022-08-16T08:24:22.456Z,21.40
2022-08-16T08:27:02.322Z,21.40
2022-08-16T08:29:36.828Z,21.40
2022-08-16T08:32:57.533Z,21.40
2022-08-16T08:35:03.277Z,21.50
2022-08-16T08:37:54.833Z,21.50
2022-08-16T08:40:24.549Z,21.50
2022-08-16T08:42:57.737Z,21.40
2022-08-16T08:45:48.211Z,21.40
2022-08-16T08:48:33.620Z,21.50
2022-08-16T08:51:04.912Z,21.50
2022-08-16T08:53:33.398Z,21.40
2022-08-16T08:56:23.753Z,21.50
2022-08-16T08:58:54.649Z,21.50
2022-08-16T09:01:36.785Z,21.60
2022-08-16T09:04:14.861Z,21.70
2022-08-16T09:06:45.457Z,21.80
2022-08-16T09:09:16.828Z,21.90
2022-08-16T09:11:50.910Z,21.90
2022-08-16T09:14:24.125Z,22.00
2022-08-16T09:17:01.314Z,22.10
2022-08-16T09:19:40.942Z,22.10
2022-08-16T09:22:19.863Z,22.00
2022-08-16T09:24:52.275Z,22.00
2022-08-16T09:27:23.409Z,21.90
2022-08-16T09:30:00.452Z,22.00
2022-08-16T09:32:31.309Z,21.90
2022-08-16T09:35:01.492Z,21.80
2022-08-16T09:37:36.277Z,21.70
2022-08-16T09:40:32.075Z,21.60
2022-08-16T09:42:59.480Z,21.60
2022-08-16T09:45:29.002Z,21.70
2022-08-16T09:47:58.413Z,21.70
2022-08-16T09:50:37.255Z,21.80
2022-08-16T09:53:15.099Z,21.70
2022-08-16T09:55:49.249Z,21.80
2022-08-16T09:58:41.804Z,21.80
2022-08-16T10:01:11.224Z,21.80
2022-08-16T10:04:02.111Z,21.70
2022-08-16T10:06:33.851Z,21.80
2022-08-16T10:09:05.410Z,21.80
2022-08-16T10:11:53.835Z,21.70
2022-08-16T10:14:24.510Z,21.50
2022-08-16T10:17:04.099Z,21.30
2022-08-16T10:19:32.409Z,21.30
2022-08-16T10:22:05.161Z,21.30
2022-08-16T10:24:34.002Z,21.20
2022-08-16T10:27:25.643Z,21.20
2022-08-16T10:30:00.055Z,21.20
2022-08-16T10:32:32.216Z,21.00
2022-08-16T10:35:04.506Z,21.00
2022-08-16T10:37:36.179Z,21.00
2022-08-16T10:40:29.189Z,21.00
2022-08-16T10:43:03.088Z,20.90
2022-08-16T10:45:38.786Z,20.80
2022-08-16T10:48:23.976Z,20.70
2022-08-16T10:51:00.873Z,20.50
2022-08-16T10:53:32.535Z,20.30
2022-08-16T10:56:52.218Z,20.10
2022-08-16T10:58:57.202Z,19.90
2022-08-16T11:01:43.929Z,19.50
2022-08-16T11:07:08.069Z,19.10
2022-08-16T11:09:43.808Z,19.10
2022-08-16T11:12:23.355Z,19.00
2022-08-16T11:17:45.032Z,18.80
2022-08-16T11:23:05.454Z,18.70
2022-08-16T11:31:10.240Z,18.80
2022-08-16T11:33:56.334Z,18.80
2022-08-16T11:36:25.131Z,18.90
2022-08-16T11:38:58.807Z,19.00
2022-08-16T11:41:29.516Z,19.00
2022-08-16T11:44:01.095Z,19.00
2022-08-16T11:46:45.209Z,19.20
2022-08-16T11:49:14.486Z,19.20
2022-08-16T11:51:46.496Z,19.20
2022-08-16T11:54:20.992Z,19.30
2022-08-16T11:56:57.432Z,19.30
2022-08-16T11:59:29.201Z,19.30
2022-08-16T12:01:59.824Z,19.40
2022-08-16T12:04:32.462Z,19.40
2022-08-16T12:07:05.900Z,19.50
2022-08-16T12:09:33.965Z,19.60
2022-08-16T12:12:09.153Z,19.90
2022-08-16T12:14:37.041Z,20.20
2022-08-16T12:17:06.687Z,20.40
2022-08-16T12:19:36.171Z,20.60
2022-08-16T12:22:05.514Z,21.10
2022-08-16T12:24:47.824Z,21.10
2022-08-16T12:27:18.728Z,21.00
2022-08-16T12:29:46.198Z,21.00
2022-08-16T12:32:38.452Z,21.50
2022-08-16T12:35:01.808Z,21.90
2022-08-16T12:37:30.561Z,22.30
2022-08-16T12:39:59.024Z,22.40
2022-08-16T12:42:34.486Z,22.40
2022-08-16T12:45:06.024Z,22.40
2022-08-16T12:48:00.933Z,22.50
2022-08-16T12:50:40.491Z,22.60
2022-08-16T12:53:07.973Z,23.10
2022-08-16T12:55:41.792Z,23.30
2022-08-16T12:58:14.222Z,23.40
2022-08-16T13:00:57.787Z,23.40
2022-08-16T13:03:25.920Z,23.30
2022-08-16T13:05:55.918Z,23.00
2022-08-16T13:08:30.826Z,22.90
2022-08-16T13:11:01.839Z,22.70
2022-08-16T13:13:29.729Z,22.50
2022-08-16T13:16:00.857Z,22.30
2022-08-16T13:18:33.766Z,22.10
2022-08-16T13:21:07.757Z,22.00
2022-08-16T13:23:43.350Z,21.90
2022-08-16T13:26:12.817Z,21.70
2022-08-16T13:28:46.224Z,21.60
2022-08-16T13:31:16.889Z,21.50
2022-08-16T13:33:45.380Z,21.50
2022-08-16T13:39:01.581Z,21.50
2022-08-16T13:41:30.350Z,21.50
2022-08-16T13:44:00.460Z,21.50
2022-08-16T13:46:30.237Z,21.50
2022-08-16T13:48:58.415Z,21.60
2022-08-16T13:51:29.032Z,21.60
2022-08-16T13:54:03.331Z,21.60
2022-08-16T13:56:37.553Z,21.70
2022-08-16T13:59:19.357Z,21.90
2022-08-16T14:01:54.511Z,22.10
2022-08-16T14:04:26.349Z,22.20
2022-08-16T14:06:59.184Z,22.30
2022-08-16T14:09:30.284Z,22.20
2022-08-16T14:12:01.015Z,22.10
2022-08-16T14:14:32.359Z,22.10
2022-08-16T14:17:02.168Z,22.10
2022-08-16T14:19:30.075Z,22.20
2022-08-16T14:22:13.488Z,22.20
2022-08-16T14:24:47.415Z,22.20
2022-08-16T14:27:21.176Z,22.30
2022-08-16T14:29:51.215Z,22.60
2022-08-16T14:32:33.664Z,22.90
2022-08-16T14:35:49.397Z,22.90
2022-08-16T14:38:23.938Z,22.80
2022-08-16T14:40:54.949Z,22.80
2022-08-16T14:43:24.969Z,22.70
2022-08-16T14:45:54.863Z,22.60
2022-08-16T14:48:26.290Z,22.50
2022-08-16T14:50:55.212Z,22.50
2022-08-16T14:53:24.394Z,22.40
2022-08-16T14:55:52.281Z,22.30
2022-08-16T14:58:20.234Z,22.20
2022-08-16T15:00:57.827Z,22.20
2022-08-16T15:03:25.972Z,22.20
2022-08-16T15:05:54.294Z,22.20
2022-08-16T15:08:21.795Z,22.20
2022-08-16T15:11:07.868Z,22.20
2022-08-16T15:13:36.006Z,22.20
2022-08-16T15:16:04.810Z,22.20
2022-08-16T15:18:33.564Z,22.10
2022-08-16T15:21:03.976Z,22.10
2022-08-16T15:23:33.906Z,22.10
2022-08-16T15:26:04.045Z,22.10
2022-08-16T15:28:33.692Z,22.10
2022-08-16T15:31:03.798Z,22.10
2022-08-16T15:33:34.818Z,22.10
2022-08-16T15:36:04.543Z,22.10
2022-08-16T15:38:57.481Z,22.10
2022-08-16T15:41:38.937Z,22.10
2022-08-16T15:44:14.757Z,22.00
2022-08-16T15:46:55.010Z,22.00
2022-08-16T15:49:34.803Z,21.90
2022-08-16T15:52:06.423Z,21.90
2022-08-16T15:54:34.230Z,21.90
2022-08-16T15:57:11.050Z,21.90
2022-08-16T15:59:48.753Z,21.90
2022-08-16T16:02:27.219Z,21.90
2022-08-16T16:04:55.394Z,21.90
2022-08-16T16:07:22.936Z,21.90
2022-08-16T16:09:53.224Z,21.80
2022-08-16T16:12:51.630Z,21.80
2022-08-16T16:15:09.161Z,21.80
2022-08-16T16:17:36.546Z,21.80
2022-08-16T16:20:05.133Z,21.80
2022-08-16T16:22:35.636Z,21.80
2022-08-16T16:25:04.952Z,21.90
2022-08-16T16:27:32.326Z,21.90
2022-08-16T16:30:03.395Z,21.90
2022-08-16T16:32:50.737Z,21.90
2022-08-16T16:35:18.608Z,21.90
2022-08-16T16:37:46.489Z,21.90
2022-08-16T16:40:16.929Z,21.90
2022-08-16T16:42:56.550Z,21.90
2022-08-16T16:45:25.736Z,21.90
2022-08-16T16:48:12.283Z,21.90
2022-08-16T16:50:44.490Z,22.00
2022-08-16T16:53:16.687Z,22.00
2022-08-16T16:55:52.231Z,22.00
2022-08-16T16:58:40.579Z,21.90
2022-08-16T17:01:10.975Z,21.90
2022-08-16T17:03:38.994Z,21.90
2022-08-16T17:06:09.351Z,21.90
2022-08-16T17:08:40.753Z,21.90
2022-08-16T17:11:09.817Z,21.90
2022-08-16T17:13:38.608Z,21.90
2022-08-16T17:16:07.875Z,21.90
2022-08-16T17:19:16.976Z,21.80
2022-08-16T17:21:24.963Z,21.90
2022-08-16T17:23:58.200Z,21.80
2022-08-16T17:26:30.846Z,21.90
2022-08-16T17:29:10.925Z,21.90
2022-08-16T17:31:41.132Z,21.80
2022-08-16T17:34:29.402Z,21.80
2022-08-16T17:37:05.369Z,21.80
2022-08-16T17:39:54.854Z,21.80
2022-08-16T17:42:25.784Z,21.80
2022-08-16T17:44:54.575Z,21.80
2022-08-16T17:47:22.878Z,21.80
2022-08-16T17:49:50.285Z,21.80
2022-08-16T17:52:17.827Z,21.80
2022-08-16T17:54:45.525Z,21.70
2022-08-16T17:57:13.499Z,21.70
2022-08-16T17:59:44.343Z,21.70
2022-08-16T18:02:43.866Z,21.70
2022-08-16T18:05:00.346Z,21.80
2022-08-16T18:07:27.841Z,21.80
2022-08-16T18:09:55.325Z,21.80
2022-08-16T18:12:44.685Z,21.80
2022-08-16T18:15:13.285Z,21.90
2022-08-16T18:17:42.073Z,21.90
2022-08-16T18:20:29.689Z,21.90
2022-08-16T18:23:15.377Z,21.80
2022-08-16T18:25:52.020Z,21.80
2022-08-16T18:28:20.743Z,21.80
2022-08-16T18:30:54.271Z,21.80
2022-08-16T18:33:26.722Z,21.70
2022-08-16T18:35:57.759Z,21.70
2022-08-16T18:38:25.711Z,21.70
2022-08-16T18:40:53.672Z,21.60
2022-08-16T18:43:59.159Z,21.60
2022-08-16T18:46:10.952Z,21.60
2022-08-16T18:48:38.479Z,21.60
2022-08-16T18:51:10.264Z,21.60
2022-08-16T18:53:39.459Z,21.50
2022-08-16T18:56:07.096Z,21.50
2022-08-16T18:58:34.568Z,21.50
2022-08-16T19:01:02.096Z,21.50
2022-08-16T19:03:32.449Z,21.50
2022-08-16T19:06:13.846Z,21.50
2022-08-16T19:08:45.569Z,21.40
2022-08-16T19:11:18.935Z,21.40
2022-08-16T19:13:46.544Z,21.40
2022-08-16T19:16:14.603Z,21.30
2022-08-16T19:18:42.338Z,21.30
2022-08-16T19:21:14.439Z,21.30
2022-08-16T19:23:43.451Z,21.20
2022-08-16T19:26:25.677Z,21.20
2022-08-16T19:28:58.554Z,21.20
2022-08-16T19:31:31.189Z,21.20
2022-08-16T19:34:00.880Z,21.20
2022-08-16T19:36:35.126Z,21.20
2022-08-16T19:39:10.311Z,21.10
2022-08-16T19:41:46.082Z,21.20
2022-08-16T19:44:13.796Z,21.20
2022-08-16T19:46:46.496Z,21.10
2022-08-16T19:49:16.177Z,21.10
2022-08-16T19:51:45.987Z,21.10
2022-08-16T19:54:13.722Z,21.10
2022-08-16T19:56:41.143Z,21.10
2022-08-16T19:59:39.679Z,21.10
2022-08-16T20:01:56.332Z,21.10
2022-08-16T20:04:24.589Z,21.10
2022-08-16T20:06:53.225Z,21.10
2022-08-16T20:09:24.542Z,21.00
2022-08-16T20:11:52.901Z,21.00
2022-08-16T20:14:25.118Z,21.00
2022-08-16T20:16:59.305Z,21.00
2022-08-16T20:19:28.722Z,20.90
2022-08-16T20:21:57.503Z,20.90
2022-08-16T20:24:35.680Z,20.90
2022-08-16T20:27:06.307Z,20.90
2022-08-16T20:29:34.783Z,20.90
2022-08-16T20:32:03.546Z,20.90
2022-08-16T20:34:31.135Z,21.10
2022-08-16T20:36:58.524Z,21.00
2022-08-16T20:39:26.370Z,20.90
2022-08-16T20:44:39.804Z,20.80
2022-08-16T20:47:08.574Z,20.80
2022-08-16T20:49:37.193Z,20.70
2022-08-16T20:52:09.720Z,20.70
2022-08-16T20:54:38.033Z,20.70
2022-08-16T20:57:06.165Z,20.70
2022-08-16T20:59:33.653Z,20.70
2022-08-16T21:02:01.144Z,20.70
2022-08-16T21:04:29.838Z,20.70
2022-08-16T21:06:59.263Z,20.80
2022-08-16T21:09:29.055Z,20.70
2022-08-16T21:11:57.724Z,20.70
2022-08-16T21:14:25.156Z,20.70
2022-08-16T21:16:53.169Z,20.70
2022-08-16T21:19:21.011Z,20.70
2022-08-16T21:21:48.564Z,20.70
2022-08-16T21:24:16.948Z,20.60
2022-08-16T21:26:55.223Z,20.60
2022-08-16T21:29:37.807Z,20.60
2022-08-16T21:32:13.847Z,20.60
2022-08-16T21:34:42.522Z,20.60
2022-08-16T21:37:10.662Z,20.50
2022-08-16T21:39:39.157Z,20.50
2022-08-16T21:42:11.525Z,20.60
2022-08-16T21:44:39.520Z,20.50
2022-08-16T21:47:08.111Z,20.50
2022-08-16T21:49:37.381Z,20.50
2022-08-16T21:52:07.003Z,20.40
2022-08-16T21:54:34.858Z,20.40
2022-08-16T21:57:04.725Z,20.30
2022-08-16T21:59:34.912Z,20.30
2022-08-16T22:02:02.383Z,20.20
2022-08-16T22:04:37.413Z,20.20
2022-08-16T22:07:06.967Z,20.20
2022-08-16T22:09:34.724Z,20.20
2022-08-16T22:12:02.138Z,20.10
2022-08-16T22:14:29.605Z,20.10
2022-08-16T22:16:57.100Z,20.00
2022-08-16T22:19:24.709Z,20.00
2022-08-16T22:21:52.846Z,20.00
2022-08-16T22:24:20.250Z,19.90
2022-08-16T22:26:47.797Z,19.90
2022-08-16T22:29:15.257Z,19.90
2022-08-16T22:31:44.163Z,19.90
2022-08-16T22:34:12.252Z,19.90
2022-08-16T22:36:39.716Z,19.80
2022-08-16T22:39:14.077Z,19.80
2022-08-16T22:41:43.318Z,19.80
2022-08-16T22:44:11.274Z,19.80
2022-08-16T22:46:38.991Z,19.80
2022-08-16T22:49:07.177Z,19.70
2022-08-16T22:51:36.584Z,19.70
2022-08-16T22:54:34.298Z,19.60
2022-08-16T22:56:56.515Z,19.60
2022-08-16T22:59:25.219Z,19.60
2022-08-16T23:01:54.004Z,19.60
2022-08-16T23:04:22.671Z,19.50
2022-08-16T23:06:50.352Z,19.50
2022-08-16T23:09:18.298Z,19.50
2022-08-16T23:11:45.819Z,19.50
2022-08-16T23:14:13.344Z,19.50
2022-08-16T23:17:02.866Z,19.50
2022-08-16T23:19:30.315Z,19.50
2022-08-16T23:21:58.019Z,19.50
2022-08-16T23:24:25.486Z,19.50
2022-08-16T23:26:52.907Z,19.50
2022-08-16T23:29:25.403Z,19.40
2022-08-16T23:32:09.123Z,19.40
2022-08-16T23:34:36.773Z,19.40
2022-08-16T23:37:04.481Z,19.40
2022-08-16T23:39:31.976Z,19.40
2022-08-16T23:41:59.667Z,19.40
2022-08-16T23:44:55.800Z,19.40
2022-08-16T23:47:14.804Z,19.40
2022-08-16T23:49:56.845Z,19.40
2022-08-16T23:52:42.094Z,19.40
2022-08-16T23:55:16.312Z,19.30
2022-08-16T23:57:46.095Z,19.30
